SYN001 KSAN-KLAS
Flight info
| Callsign | SYN001 |
|---|---|
| Flight time | 1h 2m |
| Altitude | 29000 |
| Route | PADRZ2 CHKNN SEBBY YELAH MISEN RNDRZ4 |
| Aircraft | BCS3/M-SBDE2E3GIRWXY/LB1 |
Departure
| Time | 2026-05-07 22:03 |
|---|---|
| Airport | San Diego International Airport (KSAN) |
Arrival
| Time | 2026-05-07 23:05 |
|---|---|
| Airport | Harry Reid International Airport (KLAS) |
| Time | Latitude | Longitude | Altitude | Speed | Heading |
|---|---|---|---|---|---|
| 2026-05-07 21:38 | 32.73304 | -117.20069 | 28 ft | 0 kts | 274° |
| 2026-05-07 21:46 | 32.73303 | -117.20062 | 28 ft | 0 kts | 274° |
| 2026-05-07 21:48 | 32.73303 | -117.20049 | 33 ft | 2 kts | 274° |
| 2026-05-07 21:48 | 32.73302 | -117.20030 | 28 ft | 2 kts | 274° |
| 2026-05-07 21:48 | 32.73300 | -117.20010 | 28 ft | 2 kts | 274° |
| 2026-05-07 21:49 | 32.73299 | -117.19990 | 28 ft | 2 kts | 274° |
| 2026-05-07 21:49 | 32.73298 | -117.19975 | 28 ft | 0 kts | 274° |
| 2026-05-07 21:51 | 32.73300 | -117.19982 | 28 ft | 1 kts | 288° |
| 2026-05-07 21:51 | 32.73303 | -117.19982 | 28 ft | 0 kts | 337° |
| 2026-05-07 21:52 | 32.73356 | -117.19980 | 29 ft | 11 kts | 14° |
| 2026-05-07 21:52 | 32.73436 | -117.19957 | 29 ft | 13 kts | 13° |
| 2026-05-07 21:52 | 32.73475 | -117.19882 | 29 ft | 12 kts | 99° |
| 2026-05-07 21:52 | 32.73449 | -117.19782 | 29 ft | 13 kts | 107° |
| 2026-05-07 21:53 | 32.73419 | -117.19664 | 28 ft | 12 kts | 107° |
| 2026-05-07 21:53 | 32.73418 | -117.19658 | 28 ft | 1 kts | 107° |
| 2026-05-07 21:53 | 32.73411 | -117.19633 | 28 ft | 6 kts | 107° |
| 2026-05-07 21:53 | 32.73397 | -117.19573 | 29 ft | 9 kts | 105° |
| 2026-05-07 21:54 | 32.73372 | -117.19460 | 29 ft | 21 kts | 100° |
| 2026-05-07 21:54 | 32.73327 | -117.19275 | 28 ft | 25 kts | 107° |
| 2026-05-07 21:54 | 32.73277 | -117.19075 | 27 ft | 25 kts | 106° |
| 2026-05-07 21:54 | 32.73230 | -117.18874 | 28 ft | 25 kts | 101° |
| 2026-05-07 21:55 | 32.73183 | -117.18676 | 29 ft | 25 kts | 107° |
| 2026-05-07 21:55 | 32.73130 | -117.18468 | 26 ft | 27 kts | 106° |
| 2026-05-07 21:55 | 32.73080 | -117.18251 | 28 ft | 27 kts | 107° |
| 2026-05-07 21:55 | 32.73064 | -117.18133 | 23 ft | 10 kts | 65° |
| 2026-05-07 21:56 | 32.73072 | -117.18122 | 23 ft | 0 kts | 40° |
| 2026-05-07 22:01 | 32.73094 | -117.18113 | 23 ft | 11 kts | 6° |
| 2026-05-07 22:02 | 32.73163 | -117.18176 | 25 ft | 12 kts | 290° |
| 2026-05-07 22:02 | 32.73166 | -117.18188 | 27 ft | 2 kts | 288° |
| 2026-05-07 22:02 | 32.73227 | -117.18440 | 27 ft | 69 kts | 285° |
| 2026-05-07 22:02 | 32.73428 | -117.19265 | 35 ft | 136 kts | 288° |
| 2026-05-07 22:03 | 32.73696 | -117.20342 | 798 ft | 138 kts | 287° |
| 2026-05-07 22:03 | 32.74121 | -117.21424 | 1577 ft | 149 kts | 301° |
| 2026-05-07 22:03 | 32.74699 | -117.22468 | 2456 ft | 153 kts | 302° |
| 2026-05-07 22:03 | 32.75320 | -117.23589 | 3119 ft | 170 kts | 303° |
| 2026-05-07 22:04 | 32.76001 | -117.24808 | 3768 ft | 183 kts | 304° |
| 2026-05-07 22:04 | 32.76738 | -117.26124 | 4377 ft | 198 kts | 304° |
| 2026-05-07 22:04 | 32.77533 | -117.27538 | 4914 ft | 213 kts | 304° |
| 2026-05-07 22:04 | 32.78389 | -117.29066 | 5351 ft | 231 kts | 304° |
| 2026-05-07 22:05 | 32.79309 | -117.30711 | 5882 ft | 247 kts | 304° |
| 2026-05-07 22:05 | 32.80329 | -117.32440 | 6400 ft | 263 kts | 308° |
| 2026-05-07 22:05 | 32.81456 | -117.34190 | 7004 ft | 273 kts | 309° |
| 2026-05-07 22:05 | 32.82629 | -117.35998 | 7780 ft | 278 kts | 309° |
| 2026-05-07 22:06 | 32.83818 | -117.37833 | 8586 ft | 283 kts | 309° |
| 2026-05-07 22:06 | 32.85030 | -117.39705 | 9412 ft | 288 kts | 309° |
| 2026-05-07 22:06 | 32.86261 | -117.41610 | 10191 ft | 293 kts | 309° |
| 2026-05-07 22:06 | 32.87533 | -117.43578 | 10673 ft | 310 kts | 309° |
| 2026-05-07 22:07 | 32.88882 | -117.45667 | 11084 ft | 325 kts | 309° |
| 2026-05-07 22:07 | 32.90359 | -117.47736 | 11699 ft | 329 kts | 321° |
| 2026-05-07 22:07 | 32.92331 | -117.49090 | 12392 ft | 328 kts | 343° |
| 2026-05-07 22:07 | 32.94579 | -117.49429 | 13105 ft | 327 kts | 6° |
| 2026-05-07 22:08 | 32.96760 | -117.48702 | 13822 ft | 327 kts | 28° |
| 2026-05-07 22:08 | 32.98575 | -117.47133 | 14461 ft | 329 kts | 40° |
| 2026-05-07 22:08 | 33.00428 | -117.45504 | 15115 ft | 331 kts | 33° |
| 2026-05-07 22:08 | 33.02446 | -117.44148 | 15765 ft | 335 kts | 27° |
| 2026-05-07 22:09 | 33.04575 | -117.42985 | 16435 ft | 338 kts | 24° |
| 2026-05-07 22:09 | 33.06763 | -117.41928 | 17097 ft | 341 kts | 22° |
| 2026-05-07 22:09 | 33.08996 | -117.40922 | 17767 ft | 344 kts | 21° |
| 2026-05-07 22:09 | 33.11253 | -117.39937 | 18407 ft | 347 kts | 21° |
| 2026-05-07 22:10 | 33.13536 | -117.38949 | 18999 ft | 349 kts | 21° |
| 2026-05-07 22:10 | 33.15831 | -117.37961 | 19580 ft | 352 kts | 21° |
| 2026-05-07 22:10 | 33.18149 | -117.36966 | 20162 ft | 355 kts | 20° |
| 2026-05-07 22:10 | 33.20455 | -117.35978 | 20739 ft | 358 kts | 20° |
| 2026-05-07 22:11 | 33.22817 | -117.34968 | 21315 ft | 361 kts | 20° |
| 2026-05-07 22:11 | 33.25203 | -117.33948 | 21871 ft | 364 kts | 20° |
| 2026-05-07 22:11 | 33.27596 | -117.32926 | 22424 ft | 367 kts | 20° |
| 2026-05-07 22:11 | 33.30014 | -117.31894 | 22983 ft | 370 kts | 20° |
| 2026-05-07 22:12 | 33.32461 | -117.30850 | 23493 ft | 374 kts | 20° |
| 2026-05-07 22:12 | 33.34922 | -117.29799 | 23963 ft | 376 kts | 20° |
| 2026-05-07 22:12 | 33.37392 | -117.28745 | 24415 ft | 379 kts | 20° |
| 2026-05-07 22:12 | 33.39875 | -117.27685 | 24887 ft | 380 kts | 20° |
| 2026-05-07 22:13 | 33.42379 | -117.26616 | 25338 ft | 382 kts | 20° |
| 2026-05-07 22:13 | 33.44898 | -117.25540 | 25767 ft | 384 kts | 20° |
| 2026-05-07 22:13 | 33.47426 | -117.24459 | 26166 ft | 387 kts | 20° |
| 2026-05-07 22:13 | 33.49939 | -117.23384 | 26585 ft | 389 kts | 20° |
| 2026-05-07 22:14 | 33.52493 | -117.22292 | 26954 ft | 392 kts | 20° |
| 2026-05-07 22:14 | 33.55064 | -117.21191 | 27398 ft | 393 kts | 20° |
| 2026-05-07 22:14 | 33.57652 | -117.20083 | 27791 ft | 395 kts | 20° |
| 2026-05-07 22:14 | 33.60250 | -117.18969 | 28174 ft | 397 kts | 20° |
| 2026-05-07 22:15 | 33.61977 | -117.18228 | 28447 ft | 398 kts | 20° |
| 2026-05-07 22:15 | 33.64598 | -117.17103 | 28806 ft | 400 kts | 20° |
| 2026-05-07 22:15 | 33.68110 | -117.15595 | 29023 ft | 409 kts | 20° |
| 2026-05-07 22:15 | 33.70807 | -117.14435 | 29026 ft | 410 kts | 20° |
| 2026-05-07 22:16 | 33.75206 | -117.12544 | 29007 ft | 395 kts | 20° |
| 2026-05-07 22:16 | 33.80464 | -117.10280 | 29015 ft | 407 kts | 20° |
| 2026-05-07 22:17 | 33.85689 | -117.08028 | 29004 ft | 396 kts | 20° |
| 2026-05-07 22:17 | 33.90941 | -117.05761 | 29001 ft | 404 kts | 20° |
| 2026-05-07 22:18 | 33.98812 | -117.02360 | 29011 ft | 401 kts | 20° |
| 2026-05-07 22:19 | 34.04089 | -117.00074 | 29013 ft | 401 kts | 20° |
| 2026-05-07 22:19 | 34.09323 | -116.97806 | 29012 ft | 400 kts | 20° |
| 2026-05-07 22:20 | 34.14555 | -116.95534 | 29007 ft | 401 kts | 20° |
| 2026-05-07 22:20 | 34.19798 | -116.93255 | 29001 ft | 399 kts | 20° |
| 2026-05-07 22:21 | 34.25026 | -116.90979 | 29001 ft | 401 kts | 20° |
| 2026-05-07 22:21 | 34.30273 | -116.88692 | 28985 ft | 400 kts | 20° |
| 2026-05-07 22:22 | 34.35504 | -116.86409 | 28984 ft | 400 kts | 20° |
| 2026-05-07 22:22 | 34.40738 | -116.84122 | 28974 ft | 399 kts | 20° |
| 2026-05-07 22:23 | 34.45932 | -116.81849 | 28972 ft | 399 kts | 20° |
| 2026-05-07 22:23 | 34.51165 | -116.79556 | 28963 ft | 399 kts | 20° |
| 2026-05-07 22:24 | 34.56389 | -116.77264 | 28961 ft | 398 kts | 20° |
| 2026-05-07 22:24 | 34.61598 | -116.74975 | 28958 ft | 398 kts | 20° |
| 2026-05-07 22:25 | 34.66821 | -116.72678 | 28963 ft | 398 kts | 20° |
| 2026-05-07 22:25 | 34.72027 | -116.70384 | 28971 ft | 399 kts | 20° |
| 2026-05-07 22:26 | 34.77219 | -116.68094 | 28974 ft | 398 kts | 20° |
| 2026-05-07 22:26 | 34.82418 | -116.65797 | 28976 ft | 398 kts | 20° |
| 2026-05-07 22:27 | 34.87271 | -116.62616 | 28980 ft | 398 kts | 36° |
| 2026-05-07 22:27 | 34.91631 | -116.58460 | 28962 ft | 398 kts | 38° |
| 2026-05-07 22:28 | 34.95971 | -116.54260 | 28955 ft | 398 kts | 38° |
| 2026-05-07 22:28 | 35.00296 | -116.50065 | 28937 ft | 397 kts | 38° |
| 2026-05-07 22:29 | 35.04601 | -116.45884 | 28880 ft | 398 kts | 38° |
| 2026-05-07 22:29 | 35.08911 | -116.41690 | 28941 ft | 396 kts | 38° |
| 2026-05-07 22:30 | 35.12904 | -116.36995 | 28881 ft | 397 kts | 45° |
| 2026-05-07 22:30 | 35.16663 | -116.32125 | 28937 ft | 398 kts | 45° |
| 2026-05-07 22:30 | 35.18594 | -116.29623 | 27868 ft | 414 kts | 45° |
| 2026-05-07 22:31 | 35.20634 | -116.26980 | 26343 ft | 433 kts | 45° |
| 2026-05-07 22:31 | 35.22675 | -116.24327 | 25385 ft | 421 kts | 46° |
| 2026-05-07 22:31 | 35.24603 | -116.21715 | 24695 ft | 404 kts | 47° |
| 2026-05-07 22:31 | 35.26413 | -116.19229 | 24075 ft | 390 kts | 47° |
| 2026-05-07 22:32 | 35.28183 | -116.16797 | 23542 ft | 376 kts | 47° |
| 2026-05-07 22:32 | 35.29897 | -116.14441 | 23002 ft | 365 kts | 47° |
| 2026-05-07 22:32 | 35.31578 | -116.12132 | 22573 ft | 367 kts | 47° |
| 2026-05-07 22:32 | 35.33299 | -116.09768 | 22161 ft | 369 kts | 47° |
| 2026-05-07 22:33 | 35.34986 | -116.07448 | 21767 ft | 361 kts | 47° |
| 2026-05-07 22:33 | 35.36648 | -116.05162 | 21376 ft | 357 kts | 47° |
| 2026-05-07 22:33 | 35.38304 | -116.02883 | 20992 ft | 358 kts | 47° |
| 2026-05-07 22:33 | 35.39954 | -116.00612 | 20606 ft | 357 kts | 47° |
| 2026-05-07 22:34 | 35.41600 | -115.98345 | 20219 ft | 354 kts | 47° |
| 2026-05-07 22:34 | 35.43231 | -115.96096 | 19817 ft | 352 kts | 47° |
| 2026-05-07 22:34 | 35.44856 | -115.93856 | 19419 ft | 350 kts | 47° |
| 2026-05-07 22:34 | 35.46469 | -115.91630 | 19054 ft | 348 kts | 47° |
| 2026-05-07 22:35 | 35.48073 | -115.89416 | 18689 ft | 347 kts | 47° |
| 2026-05-07 22:35 | 35.49672 | -115.87207 | 18320 ft | 344 kts | 47° |
| 2026-05-07 22:35 | 35.51240 | -115.85038 | 17910 ft | 343 kts | 47° |
| 2026-05-07 22:35 | 35.52822 | -115.82851 | 17522 ft | 342 kts | 47° |
| 2026-05-07 22:36 | 35.54393 | -115.80676 | 17155 ft | 340 kts | 47° |
| 2026-05-07 22:36 | 35.55962 | -115.78503 | 16791 ft | 339 kts | 47° |
| 2026-05-07 22:36 | 35.57521 | -115.76343 | 16431 ft | 337 kts | 47° |
| 2026-05-07 22:36 | 35.59070 | -115.74194 | 16066 ft | 336 kts | 47° |
| 2026-05-07 22:37 | 35.60608 | -115.72102 | 15855 ft | 323 kts | 46° |
| 2026-05-07 22:37 | 35.62091 | -115.70102 | 15704 ft | 309 kts | 46° |
| 2026-05-07 22:37 | 35.63519 | -115.68176 | 15554 ft | 301 kts | 46° |
| 2026-05-07 22:37 | 35.64933 | -115.66269 | 15407 ft | 303 kts | 46° |
| 2026-05-07 22:38 | 35.66349 | -115.64359 | 15250 ft | 302 kts | 46° |
| 2026-05-07 22:38 | 35.67742 | -115.62477 | 15126 ft | 300 kts | 46° |
| 2026-05-07 22:38 | 35.69158 | -115.60562 | 15075 ft | 299 kts | 46° |
| 2026-05-07 22:38 | 35.70540 | -115.58692 | 15124 ft | 301 kts | 46° |
| 2026-05-07 22:39 | 35.71951 | -115.56781 | 15113 ft | 300 kts | 46° |
| 2026-05-07 22:39 | 35.73546 | -115.55153 | 15126 ft | 299 kts | 32° |
| 2026-05-07 22:39 | 35.75330 | -115.53830 | 15129 ft | 300 kts | 30° |
| 2026-05-07 22:39 | 35.77143 | -115.52554 | 15128 ft | 300 kts | 29° |
| 2026-05-07 22:40 | 35.78957 | -115.51285 | 15123 ft | 298 kts | 29° |
| 2026-05-07 22:40 | 35.80760 | -115.50024 | 15113 ft | 299 kts | 29° |
| 2026-05-07 22:40 | 35.82576 | -115.48753 | 15127 ft | 300 kts | 29° |
| 2026-05-07 22:40 | 35.84382 | -115.47487 | 15129 ft | 297 kts | 29° |
| 2026-05-07 22:41 | 35.86180 | -115.46226 | 15131 ft | 298 kts | 29° |
| 2026-05-07 22:41 | 35.87984 | -115.44960 | 15013 ft | 301 kts | 29° |
| 2026-05-07 22:41 | 35.89806 | -115.43680 | 14669 ft | 299 kts | 29° |
| 2026-05-07 22:41 | 35.91596 | -115.42423 | 14337 ft | 294 kts | 29° |
| 2026-05-07 22:42 | 35.93375 | -115.41182 | 14012 ft | 294 kts | 28° |
| 2026-05-07 22:42 | 35.95129 | -115.39959 | 13678 ft | 292 kts | 28° |
| 2026-05-07 22:42 | 35.96919 | -115.38709 | 13328 ft | 292 kts | 28° |
| 2026-05-07 22:42 | 35.98666 | -115.37489 | 13004 ft | 292 kts | 28° |
| 2026-05-07 22:43 | 36.00253 | -115.35920 | 12554 ft | 296 kts | 50° |
| 2026-05-07 22:43 | 36.01148 | -115.33654 | 12187 ft | 297 kts | 75° |
| 2026-05-07 22:43 | 36.01318 | -115.31085 | 11880 ft | 302 kts | 88° |
| 2026-05-07 22:43 | 36.01256 | -115.28488 | 11545 ft | 303 kts | 90° |
| 2026-05-07 22:44 | 36.01144 | -115.25894 | 11235 ft | 300 kts | 91° |
| 2026-05-07 22:44 | 36.01022 | -115.23324 | 10908 ft | 300 kts | 91° |
| 2026-05-07 22:44 | 36.00897 | -115.20753 | 10582 ft | 300 kts | 91° |
| 2026-05-07 22:44 | 36.00770 | -115.18177 | 10250 ft | 299 kts | 91° |
| 2026-05-07 22:45 | 36.00645 | -115.15663 | 9934 ft | 297 kts | 91° |
| 2026-05-07 22:45 | 36.00517 | -115.13110 | 9576 ft | 297 kts | 91° |
| 2026-05-07 22:45 | 36.00389 | -115.10570 | 9236 ft | 293 kts | 91° |
| 2026-05-07 22:45 | 36.00264 | -115.08101 | 8883 ft | 282 kts | 91° |
| 2026-05-07 22:46 | 36.00142 | -115.05727 | 8590 ft | 271 kts | 91° |
| 2026-05-07 22:46 | 36.00025 | -115.03448 | 8313 ft | 262 kts | 91° |
| 2026-05-07 22:46 | 35.99916 | -115.01233 | 8041 ft | 253 kts | 90° |
| 2026-05-07 22:46 | 35.99887 | -114.99088 | 7679 ft | 247 kts | 88° |
| 2026-05-07 22:47 | 35.99880 | -114.96984 | 7262 ft | 242 kts | 88° |
| 2026-05-07 22:47 | 35.99876 | -114.94943 | 7002 ft | 232 kts | 86° |
| 2026-05-07 22:47 | 36.00284 | -114.93054 | 6662 ft | 225 kts | 60° |
| 2026-05-07 22:47 | 36.01246 | -114.91612 | 6370 ft | 218 kts | 37° |
| 2026-05-07 22:48 | 36.02568 | -114.90758 | 6081 ft | 212 kts | 15° |
| 2026-05-07 22:48 | 36.04008 | -114.90604 | 5806 ft | 206 kts | 353° |
| 2026-05-07 22:48 | 36.05343 | -114.91102 | 5569 ft | 197 kts | 332° |
| 2026-05-07 22:48 | 36.06363 | -114.92092 | 5889 ft | 181 kts | 313° |
| 2026-05-07 22:49 | 36.07022 | -114.93292 | 6133 ft | 154 kts | 295° |
| 2026-05-07 22:49 | 36.07320 | -114.94516 | 6330 ft | 152 kts | 281° |
| 2026-05-07 22:49 | 36.07346 | -114.95882 | 6209 ft | 165 kts | 267° |
| 2026-05-07 22:49 | 36.07242 | -114.97306 | 5864 ft | 167 kts | 268° |
| 2026-05-07 22:50 | 36.07201 | -114.98761 | 5365 ft | 173 kts | 270° |
| 2026-05-07 22:50 | 36.07220 | -115.00274 | 4841 ft | 179 kts | 272° |
| 2026-05-07 22:50 | 36.07276 | -115.01840 | 4263 ft | 185 kts | 272° |
| 2026-05-07 22:50 | 36.07334 | -115.03433 | 3787 ft | 183 kts | 271° |
| 2026-05-07 22:51 | 36.07358 | -115.04973 | 3429 ft | 175 kts | 270° |
| 2026-05-07 22:51 | 36.07368 | -115.06433 | 3190 ft | 164 kts | 270° |
| 2026-05-07 22:51 | 36.07367 | -115.07776 | 2994 ft | 153 kts | 270° |
| 2026-05-07 22:51 | 36.07367 | -115.09083 | 2832 ft | 152 kts | 271° |
| 2026-05-07 22:52 | 36.07372 | -115.10472 | 3042 ft | 159 kts | 271° |
| 2026-05-07 22:52 | 36.07359 | -115.11888 | 3320 ft | 173 kts | 261° |
| 2026-05-07 22:52 | 36.06795 | -115.13248 | 3550 ft | 186 kts | 224° |
| 2026-05-07 22:52 | 36.05594 | -115.13988 | 3907 ft | 204 kts | 186° |
| 2026-05-07 22:53 | 36.04161 | -115.13723 | 4517 ft | 215 kts | 161° |
| 2026-05-07 22:53 | 36.02728 | -115.13127 | 5182 ft | 221 kts | 161° |
| 2026-05-07 22:53 | 36.01269 | -115.12513 | 5843 ft | 224 kts | 161° |
| 2026-05-07 22:53 | 35.99763 | -115.11874 | 6418 ft | 234 kts | 161° |
| 2026-05-07 22:54 | 35.98188 | -115.11203 | 6920 ft | 248 kts | 161° |
| 2026-05-07 22:54 | 35.96546 | -115.10508 | 7029 ft | 245 kts | 161° |
| 2026-05-07 22:54 | 35.94982 | -115.09849 | 7034 ft | 238 kts | 161° |
| 2026-05-07 22:54 | 35.93435 | -115.09117 | 7021 ft | 239 kts | 147° |
| 2026-05-07 22:55 | 35.92352 | -115.07609 | 7027 ft | 235 kts | 110° |
| 2026-05-07 22:55 | 35.92175 | -115.05648 | 7050 ft | 231 kts | 82° |
| 2026-05-07 22:55 | 35.92363 | -115.03669 | 7027 ft | 233 kts | 81° |
| 2026-05-07 22:55 | 35.92563 | -115.01690 | 7028 ft | 233 kts | 81° |
| 2026-05-07 22:56 | 35.92762 | -114.99713 | 6953 ft | 230 kts | 81° |
| 2026-05-07 22:56 | 35.92964 | -114.97757 | 6950 ft | 230 kts | 81° |
| 2026-05-07 22:56 | 35.93168 | -114.95797 | 6954 ft | 231 kts | 81° |
| 2026-05-07 22:56 | 35.93369 | -114.93836 | 6958 ft | 230 kts | 81° |
| 2026-05-07 22:57 | 35.93566 | -114.91905 | 6953 ft | 230 kts | 81° |
| 2026-05-07 22:57 | 35.93769 | -114.89940 | 6955 ft | 231 kts | 81° |
| 2026-05-07 22:57 | 35.93972 | -114.87961 | 6958 ft | 232 kts | 81° |
| 2026-05-07 22:57 | 35.94171 | -114.85992 | 6954 ft | 230 kts | 81° |
| 2026-05-07 22:58 | 35.94378 | -114.84029 | 6942 ft | 228 kts | 77° |
| 2026-05-07 22:58 | 35.95079 | -114.82324 | 6643 ft | 226 kts | 41° |
| 2026-05-07 22:58 | 35.96456 | -114.81522 | 6409 ft | 223 kts | 6° |
| 2026-05-07 22:58 | 35.98001 | -114.81830 | 6061 ft | 226 kts | 341° |
| 2026-05-07 22:59 | 35.99429 | -114.82454 | 6005 ft | 216 kts | 341° |
| 2026-05-07 22:59 | 36.00821 | -114.83078 | 5836 ft | 213 kts | 341° |
| 2026-05-07 22:59 | 36.02207 | -114.83700 | 5686 ft | 211 kts | 341° |
| 2026-05-07 22:59 | 36.03599 | -114.84321 | 5488 ft | 210 kts | 341° |
| 2026-05-07 23:00 | 36.05000 | -114.84945 | 5132 ft | 217 kts | 341° |
| 2026-05-07 23:00 | 36.05928 | -114.85404 | 4976 ft | 217 kts | 331° |
| 2026-05-07 23:00 | 36.06878 | -114.86773 | 4928 ft | 210 kts | 289° |
| 2026-05-07 23:00 | 36.07157 | -114.89102 | 4937 ft | 208 kts | 274° |
| 2026-05-07 23:01 | 36.07220 | -114.90891 | 4933 ft | 208 kts | 272° |
| 2026-05-07 23:01 | 36.07259 | -114.92684 | 4929 ft | 209 kts | 272° |
| 2026-05-07 23:01 | 36.07285 | -114.94483 | 4817 ft | 212 kts | 271° |
| 2026-05-07 23:01 | 36.07301 | -114.95721 | 4636 ft | 212 kts | 271° |
| 2026-05-07 23:02 | 36.07322 | -114.97504 | 4409 ft | 209 kts | 271° |
| 2026-05-07 23:02 | 36.07339 | -114.99265 | 4133 ft | 201 kts | 271° |
| 2026-05-07 23:02 | 36.07352 | -115.00957 | 3874 ft | 193 kts | 270° |
| 2026-05-07 23:02 | 36.07360 | -115.02589 | 3641 ft | 186 kts | 270° |
| 2026-05-07 23:03 | 36.07364 | -115.04157 | 3404 ft | 179 kts | 270° |
| 2026-05-07 23:03 | 36.07362 | -115.05655 | 3199 ft | 167 kts | 270° |
| 2026-05-07 23:03 | 36.07360 | -115.07037 | 2990 ft | 155 kts | 270° |
| 2026-05-07 23:03 | 36.07370 | -115.08357 | 2736 ft | 153 kts | 271° |
| 2026-05-07 23:04 | 36.07375 | -115.09659 | 2560 ft | 150 kts | 270° |
| 2026-05-07 23:04 | 36.07368 | -115.10945 | 2357 ft | 150 kts | 270° |
| 2026-05-07 23:04 | 36.07371 | -115.12240 | 2156 ft | 150 kts | 270° |
| 2026-05-07 23:04 | 36.07365 | -115.13472 | 2084 ft | 123 kts | 269° |
| 2026-05-07 23:05 | 36.07360 | -115.14378 | 2120 ft | 77 kts | 269° |
| 2026-05-07 23:05 | 36.07386 | -115.14833 | 2130 ft | 43 kts | 285° |
| 2026-05-07 23:05 | 36.07465 | -115.15040 | 2137 ft | 0 kts | 301° |
| 2026-05-07 23:06 | 36.07484 | -115.15076 | 2140 ft | 8 kts | 304° |
| 2026-05-07 23:06 | 36.07535 | -115.15133 | 2145 ft | 14 kts | 326° |
| 2026-05-07 23:06 | 36.07616 | -115.15185 | 2153 ft | 12 kts | 334° |
| 2026-05-07 23:06 | 36.07693 | -115.15232 | 2151 ft | 13 kts | 336° |
| 2026-05-07 23:07 | 36.07777 | -115.15274 | 2156 ft | 12 kts | 335° |
| 2026-05-07 23:07 | 36.07853 | -115.15318 | 2156 ft | 12 kts | 334° |
| 2026-05-07 23:07 | 36.07935 | -115.15366 | 2156 ft | 14 kts | 334° |
| 2026-05-07 23:07 | 36.08034 | -115.15424 | 2149 ft | 17 kts | 334° |
| 2026-05-07 23:08 | 36.08151 | -115.15434 | 2149 ft | 19 kts | 10° |
| 2026-05-07 23:08 | 36.08291 | -115.15473 | 2140 ft | 23 kts | 335° |
| 2026-05-07 23:08 | 36.08426 | -115.15462 | 2129 ft | 12 kts | 11° |
| 2026-05-07 23:08 | 36.08475 | -115.15450 | 2128 ft | 0 kts | 11° |